createdAt,value
2018-11-14T00:00:57.157Z,15.87
2018-11-14T00:04:02.028Z,15.77
2018-11-14T00:07:06.804Z,17.07
2018-11-14T00:10:30.469Z,16.27
2018-11-14T00:13:46.853Z,17.80
2018-11-14T00:16:51.618Z,16.40
2018-11-14T00:20:15.338Z,15.40
2018-11-14T00:23:38.971Z,17.43
2018-11-14T00:26:54.869Z,17.35
2018-11-14T00:30:11.032Z,16.83
2018-11-14T00:33:29.847Z,17.47
2018-11-14T00:36:45.631Z,17.57
2018-11-14T00:40:02.264Z,17.37
2018-11-14T00:43:07.332Z,18.47
2018-11-14T00:46:30.972Z,18.47
2018-11-14T00:49:47.414Z,17.30
2018-11-14T00:52:52.217Z,17.70
2018-11-14T00:56:15.959Z,17.37
2018-11-14T00:59:39.672Z,16.77
2018-11-14T01:02:56.107Z,17.03
2018-11-14T01:06:00.913Z,17.37
2018-11-14T01:09:24.511Z,17.93
2018-11-14T01:12:40.758Z,18.17
2018-11-14T01:15:56.991Z,17.63
2018-11-14T01:19:01.762Z,16.93
2018-11-14T01:22:25.463Z,16.73
2018-11-14T01:25:41.933Z,18.87
2018-11-14T01:28:46.748Z,18.70
2018-11-14T01:32:10.444Z,18.63
2018-11-14T01:35:34.122Z,18.40
2018-11-14T01:38:57.774Z,19.15
2018-11-14T01:42:02.683Z,18.70
2018-11-14T01:45:28.354Z,19.97
2018-11-14T01:48:52.037Z,18.70
2018-11-14T01:52:08.413Z,19.97
2018-11-14T01:55:24.882Z,20.37
2018-11-14T01:58:29.771Z,19.67
2018-11-14T02:01:34.735Z,19.98
2018-11-14T02:04:58.407Z,19.50
2018-11-14T02:08:22.085Z,19.60
2018-11-14T02:11:37.896Z,18.12
2018-11-14T02:14:43.043Z,18.57
2018-11-14T02:18:06.757Z,19.12
2018-11-14T02:21:30.472Z,18.80
2018-11-14T02:24:46.741Z,19.17
2018-11-14T02:28:02.663Z,18.50
2018-11-14T02:31:18.857Z,18.90
2018-11-14T02:34:34.888Z,18.37
2018-11-14T02:37:40.542Z,18.87
2018-11-14T02:41:04.201Z,18.73
2018-11-14T02:44:20.397Z,20.57
2018-11-14T02:47:39.462Z,18.57
2018-11-14T02:51:02.903Z,17.67
2018-11-14T02:54:26.709Z,18.43
2018-11-14T02:57:31.520Z,18.50
2018-11-14T03:00:55.212Z,18.63
2018-11-14T03:04:18.889Z,18.73
2018-11-14T03:07:34.704Z,17.40
2018-11-14T03:10:50.343Z,18.10
2018-11-14T03:14:06.479Z,18.07
2018-11-14T03:17:11.236Z,18.00
2018-11-14T03:20:34.928Z,17.53
2018-11-14T03:23:58.906Z,17.23
2018-11-14T03:27:15.499Z,16.73
2018-11-14T03:30:31.417Z,15.87
2018-11-14T03:33:47.290Z,17.50
2018-11-14T03:37:02.859Z,17.35
2018-11-14T03:40:19.442Z,17.00
2018-11-14T03:43:35.591Z,19.33
2018-11-14T03:46:40.634Z,18.50
2018-11-14T03:50:04.384Z,18.90
2018-11-14T03:53:28.076Z,17.37
2018-11-14T03:56:44.193Z,18.20
2018-11-14T04:00:00.698Z,17.32
2018-11-14T04:03:05.476Z,17.33
2018-11-14T04:06:29.237Z,15.97
2018-11-14T04:09:53.221Z,18.23
2018-11-14T04:13:09.818Z,16.77
2018-11-14T04:16:25.497Z,15.90
2018-11-14T04:19:41.498Z,16.50
2018-11-14T04:22:46.892Z,18.57
2018-11-14T04:25:51.743Z,16.32
2018-11-14T04:29:15.440Z,16.87
2018-11-14T04:32:20.466Z,16.73
2018-11-14T04:35:44.136Z,16.52
2018-11-14T04:39:09.449Z,16.30
2018-11-14T04:42:33.127Z,15.97
2018-11-14T04:45:49.248Z,16.70
2018-11-14T04:48:54.238Z,15.80
2018-11-14T04:52:17.980Z,16.43
2018-11-14T04:55:34.468Z,15.83
2018-11-14T04:58:50.498Z,17.77
2018-11-14T05:02:06.836Z,16.20
2018-11-14T05:05:16.653Z,15.57
2018-11-14T05:08:40.339Z,15.53
2018-11-14T05:12:03.962Z,15.80
2018-11-14T05:15:21.727Z,14.80
2018-11-14T05:21:54.201Z,15.72
2018-11-14T05:25:10.147Z,15.80
2018-11-14T05:31:36.342Z,16.40
2018-11-14T05:35:00.009Z,15.83
2018-11-14T05:38:05.396Z,15.80
2018-11-14T05:41:10.141Z,14.20
2018-11-14T05:44:33.826Z,15.03
2018-11-14T05:47:38.888Z,14.38
2018-11-14T05:51:02.724Z,13.93
2018-11-14T05:54:26.398Z,16.00
2018-11-14T05:57:31.333Z,15.32
2018-11-14T06:00:55.013Z,14.85
2018-11-14T06:03:59.898Z,14.30
2018-11-14T06:07:05.417Z,13.70
2018-11-14T06:10:29.218Z,14.53
2018-11-14T06:13:52.899Z,14.20
2018-11-14T06:17:09.073Z,14.43
2018-11-14T06:20:24.645Z,14.30
2018-11-14T06:23:29.487Z,14.13
2018-11-14T06:26:53.143Z,14.73
2018-11-14T06:30:16.807Z,13.70
2018-11-14T06:33:32.417Z,13.57
2018-11-14T06:36:49.551Z,13.80
2018-11-14T06:39:54.388Z,14.30
2018-11-14T06:43:18.053Z,13.40
2018-11-14T06:46:41.716Z,13.80
2018-11-14T06:49:57.391Z,12.97
2018-11-14T06:53:03.622Z,14.27
2018-11-14T06:56:27.368Z,14.20
2018-11-14T06:59:51.396Z,13.50
2018-11-14T07:02:56.837Z,13.83
2018-11-14T07:06:20.488Z,13.33
2018-11-14T07:09:36.205Z,12.00
2018-11-14T07:12:52.588Z,13.10
2018-11-14T07:16:09.014Z,12.75
2018-11-14T07:19:13.886Z,12.70
2018-11-14T07:22:37.529Z,12.93
2018-11-14T07:25:53.601Z,12.40
2018-11-14T07:29:09.908Z,12.18
2018-11-14T07:32:14.810Z,11.70
2018-11-14T07:35:19.795Z,11.47
2018-11-14T07:39:02.049Z,11.63
2018-11-14T07:42:25.696Z,11.80
2018-11-14T07:45:30.557Z,11.38
2018-11-14T07:48:35.761Z,11.38
2018-11-14T07:51:59.485Z,11.37
2018-11-14T07:55:04.385Z,10.83
2018-11-14T07:58:09.239Z,10.90
2018-11-14T08:01:32.934Z,10.47
2018-11-14T08:04:49.526Z,10.80
2018-11-14T08:08:05.591Z,9.77
2018-11-14T08:11:21.673Z,10.00
2018-11-14T08:14:38.034Z,10.60
2018-11-14T08:17:53.878Z,10.40
2018-11-14T08:21:10.268Z,9.97
2018-11-14T08:24:26.692Z,9.80
2018-11-14T08:27:42.568Z,10.50
2018-11-14T08:30:47.634Z,9.75
2018-11-14T08:34:11.617Z,10.25
2018-11-14T08:37:35.237Z,10.57
2018-11-14T08:40:51.634Z,10.63
2018-11-14T08:44:07.909Z,10.30
2018-11-14T08:47:12.747Z,9.00
2018-11-14T08:50:17.671Z,9.00
2018-11-14T08:53:41.288Z,9.50
2018-11-14T08:56:57.312Z,8.53
2018-11-14T09:00:02.210Z,8.70
2018-11-14T09:03:25.887Z,8.40
2018-11-14T09:06:42.088Z,9.13
2018-11-14T09:09:58.004Z,8.70
2018-11-14T09:13:18.002Z,8.60
2018-11-14T09:16:33.765Z,8.87
2018-11-14T09:19:50.196Z,9.00
2018-11-14T09:23:06.015Z,8.37
2018-11-14T09:26:22.396Z,9.20
2018-11-14T09:29:38.878Z,9.08
2018-11-14T09:32:43.683Z,9.50
2018-11-14T09:36:07.357Z,8.25
2018-11-14T09:39:31.373Z,8.67
2018-11-14T09:42:47.874Z,8.05
2018-11-14T09:46:03.993Z,7.78
2018-11-14T09:49:09.024Z,7.27
2018-11-14T09:52:32.652Z,7.85
2018-11-14T09:55:49.237Z,6.92
2018-11-14T09:59:05.023Z,7.00
2018-11-14T10:02:21.047Z,5.90
2018-11-14T10:05:37.123Z,7.10
2018-11-14T10:08:52.730Z,5.90
2018-11-14T10:12:09.084Z,5.70
2018-11-14T10:15:25.670Z,5.90
2018-11-14T10:18:30.530Z,5.83
2018-11-14T10:21:35.903Z,5.42
2018-11-14T10:24:59.677Z,6.30
2018-11-14T10:28:23.362Z,4.97
2018-11-14T10:31:28.850Z,4.92
2018-11-14T10:34:52.429Z,5.83
2018-11-14T10:38:16.113Z,5.40
2018-11-14T10:41:21.739Z,5.90
2018-11-14T10:44:45.407Z,5.87
2018-11-14T10:48:09.094Z,5.80
2018-11-14T10:51:13.911Z,5.75
2018-11-14T10:54:18.702Z,5.50
2018-11-14T11:01:31.072Z,5.53
2018-11-14T11:04:54.452Z,5.45
2018-11-14T11:08:30.628Z,5.90
2018-11-14T11:11:54.546Z,5.42
2018-11-14T11:15:36.806Z,5.27
2018-11-14T11:18:52.765Z,4.80
2018-11-14T11:21:57.693Z,5.13
2018-11-14T11:25:21.358Z,5.90
2018-11-14T11:28:37.566Z,5.62
2018-11-14T11:31:42.374Z,5.67
2018-11-14T11:35:06.414Z,6.00
2018-11-14T11:38:11.426Z,5.50
2018-11-14T11:41:16.194Z,5.27
2018-11-14T11:44:21.931Z,5.53
2018-11-14T11:47:45.591Z,4.65
2018-11-14T11:51:01.462Z,4.90
2018-11-14T11:54:19.309Z,4.73
2018-11-14T11:57:35.502Z,4.50
2018-11-14T12:00:52.120Z,4.97
2018-11-14T12:04:08.649Z,5.23
2018-11-14T12:07:24.453Z,5.10
2018-11-14T12:10:29.307Z,5.53
2018-11-14T12:13:53.042Z,4.40
2018-11-14T12:16:57.854Z,5.00
2018-11-14T12:20:02.595Z,4.40
2018-11-14T12:23:26.333Z,4.70
2018-11-14T12:26:42.425Z,4.37
2018-11-14T12:29:58.349Z,4.93
2018-11-14T12:33:14.846Z,4.50
2018-11-14T12:36:30.843Z,4.33
2018-11-14T12:39:36.313Z,4.30
2018-11-14T12:42:41.258Z,3.87
2018-11-14T12:46:04.922Z,4.35
2018-11-14T12:49:09.663Z,4.30
2018-11-14T12:52:14.508Z,4.23
2018-11-14T12:55:38.273Z,4.13
2018-11-14T12:58:54.488Z,3.67
2018-11-14T13:02:10.578Z,3.50
2018-11-14T13:05:26.519Z,4.15
2018-11-14T13:08:43.215Z,3.87
2018-11-14T13:12:06.957Z,4.60
2018-11-14T13:15:30.617Z,5.23
2018-11-14T13:18:46.554Z,4.47
2018-11-14T13:25:19.655Z,4.45
2018-11-14T13:28:35.919Z,4.20
2018-11-14T13:31:40.693Z,4.70
2018-11-14T13:35:04.377Z,4.30
2018-11-14T13:38:20.670Z,4.37
2018-11-14T13:41:25.499Z,4.30
2018-11-14T13:44:49.433Z,4.57
2018-11-14T13:48:13.100Z,4.65
2018-11-14T13:51:18.195Z,4.50
2018-11-14T13:54:41.733Z,4.10
2018-11-14T13:58:05.444Z,4.72
2018-11-14T14:01:10.350Z,4.27
2018-11-14T14:04:15.504Z,4.17
2018-11-14T14:07:39.206Z,3.97
2018-11-14T14:11:02.989Z,3.90
2018-11-14T14:14:19.497Z,3.73
2018-11-14T14:17:35.583Z,3.83
2018-11-14T14:20:51.798Z,4.53
2018-11-14T14:24:07.586Z,3.80
2018-11-14T14:27:23.904Z,4.80
2018-11-14T14:30:40.418Z,4.37
2018-11-14T14:33:56.885Z,4.90
2018-11-14T14:37:12.814Z,4.00
2018-11-14T14:40:28.863Z,3.98
2018-11-14T14:43:33.745Z,4.25
2018-11-14T14:46:57.419Z,4.27
2018-11-14T14:50:02.288Z,4.57
2018-11-14T14:53:26.075Z,4.90
2018-11-14T14:56:42.608Z,4.92
2018-11-14T14:59:47.456Z,5.55
2018-11-14T15:03:11.131Z,4.80
2018-11-14T15:06:34.893Z,5.30
2018-11-14T15:09:39.837Z,5.22
2018-11-14T15:13:03.487Z,5.53
2018-11-14T15:16:27.218Z,6.07
2018-11-14T15:19:43.633Z,6.00
2018-11-14T15:23:00.462Z,6.23
2018-11-14T15:26:05.279Z,6.40
2018-11-14T15:29:10.092Z,5.23
2018-11-14T15:32:14.930Z,5.53
2018-11-14T15:35:38.594Z,7.07
2018-11-14T15:39:02.323Z,7.23
2018-11-14T15:42:18.478Z,7.13
2018-11-14T15:45:35.013Z,6.90
2018-11-14T15:48:39.913Z,7.80
2018-11-14T15:51:44.904Z,8.73
2018-11-14T15:55:09.986Z,7.80
2018-11-14T15:58:33.660Z,7.97
2018-11-14T16:01:52.373Z,7.83
2018-11-14T16:04:57.183Z,8.00
2018-11-14T16:08:20.947Z,8.43
2018-11-14T16:11:25.773Z,8.10
2018-11-14T16:14:49.820Z,8.68
2018-11-14T16:18:06.353Z,8.47
2018-11-14T16:21:22.328Z,8.53
2018-11-14T16:24:38.361Z,8.65
2018-11-14T16:27:55.696Z,9.53
2018-11-14T16:31:12.267Z,8.33
2018-11-14T16:34:17.185Z,8.68
2018-11-14T16:37:22.935Z,9.13
2018-11-14T16:40:46.733Z,9.68
2018-11-14T16:44:10.687Z,8.97
2018-11-14T16:47:15.637Z,10.30
2018-11-14T16:50:39.355Z,11.20
2018-11-14T16:53:55.487Z,10.38
2018-11-14T16:57:11.731Z,10.53
2018-11-14T17:00:28.803Z,10.30
2018-11-14T17:03:44.765Z,10.00
2018-11-14T17:07:01.180Z,10.30
2018-11-14T17:10:21.324Z,10.10
2018-11-14T17:13:37.257Z,10.58
2018-11-14T17:16:53.626Z,10.48
2018-11-14T17:20:10.097Z,10.20
2018-11-14T17:23:26.265Z,10.80
2018-11-14T17:26:42.072Z,11.07
2018-11-14T17:29:58.433Z,11.13
2018-11-14T17:33:14.978Z,11.28
2018-11-14T17:36:19.762Z,10.60
2018-11-14T17:39:50.974Z,11.48
2018-11-14T17:43:07.014Z,11.50
2018-11-14T17:46:22.757Z,12.40
2018-11-14T17:49:38.722Z,12.47
2018-11-14T17:52:55.283Z,11.73
2018-11-14T17:56:00.348Z,11.80
2018-11-14T17:59:24.043Z,12.80
2018-11-14T18:02:28.916Z,11.40
2018-11-14T18:05:44.647Z,12.60
2018-11-14T18:09:00.705Z,11.60
2018-11-14T18:12:16.767Z,12.10
2018-11-14T18:15:33.061Z,12.60
2018-11-14T18:18:49.067Z,12.65
2018-11-14T18:22:04.919Z,12.63
2018-11-14T18:25:10.205Z,11.80
2018-11-14T18:28:33.928Z,13.60
2018-11-14T18:31:57.659Z,13.98
2018-11-14T18:35:18.724Z,11.75
2018-11-14T18:38:35.444Z,12.73
2018-11-14T18:41:52.078Z,13.68
2018-11-14T18:45:08.374Z,12.87
2018-11-14T18:48:13.318Z,12.20
2018-11-14T18:51:18.137Z,12.60
2018-11-14T18:54:23.507Z,12.40
2018-11-14T18:57:47.337Z,13.50
2018-11-14T19:00:52.123Z,13.17
2018-11-14T19:04:15.822Z,12.97
2018-11-14T19:07:32.745Z,12.67
2018-11-14T19:10:37.708Z,14.53
2018-11-14T19:14:01.478Z,13.03
2018-11-14T19:17:17.836Z,12.90
2018-11-14T19:20:42.199Z,13.08
2018-11-14T19:24:06.109Z,13.30
2018-11-14T19:27:10.967Z,13.37
2018-11-14T19:30:34.471Z,11.93
2018-11-14T19:33:58.194Z,13.00
2018-11-14T19:37:14.736Z,11.80
2018-11-14T19:40:38.517Z,12.93
2018-11-14T19:44:02.167Z,12.70
2018-11-14T19:47:07.927Z,12.70
2018-11-14T19:50:31.649Z,13.62
2018-11-14T19:53:36.600Z,13.17
2018-11-14T19:57:00.336Z,12.40
2018-11-14T20:00:06.022Z,12.53
2018-11-14T20:03:29.853Z,13.00
2018-11-14T20:06:53.574Z,12.23
2018-11-14T20:10:10.575Z,13.57
2018-11-14T20:13:25.704Z,11.77
2018-11-14T20:16:42.174Z,13.23
2018-11-14T20:19:47.025Z,13.47
2018-11-14T20:23:10.773Z,12.80
2018-11-14T20:26:34.515Z,11.67
2018-11-14T20:29:39.545Z,13.17
2018-11-14T20:33:04.961Z,12.90
2018-11-14T20:36:09.749Z,12.18
2018-11-14T20:39:33.499Z,12.10
2018-11-14T20:42:38.786Z,12.43
2018-11-14T20:46:02.492Z,13.40
2018-11-14T20:49:07.815Z,13.10
2018-11-14T20:52:31.399Z,12.07
2018-11-14T20:55:36.867Z,11.23
2018-11-14T20:59:00.528Z,13.50
2018-11-14T21:02:24.316Z,11.80
2018-11-14T21:05:40.093Z,11.87
2018-11-14T21:08:56.399Z,11.73
2018-11-14T21:12:12.967Z,11.83
2018-11-14T21:15:30.794Z,11.90
2018-11-14T21:18:47.198Z,12.77
2018-11-14T21:22:03.447Z,11.73
2018-11-14T21:25:09.847Z,12.30
2018-11-14T21:28:35.965Z,12.27
2018-11-14T21:31:59.788Z,11.70
2018-11-14T21:35:25.127Z,11.50
2018-11-14T21:38:30.025Z,11.93
2018-11-14T21:41:55.872Z,12.50
2018-11-14T21:45:23.416Z,11.00
2018-11-14T21:48:39.956Z,11.63
2018-11-14T21:51:44.803Z,11.28
2018-11-14T21:54:49.637Z,11.38
2018-11-14T21:58:13.324Z,10.60
2018-11-14T22:01:37.137Z,11.33
2018-11-14T22:04:53.462Z,12.70
2018-11-14T22:08:09.507Z,11.60
2018-11-14T22:11:14.353Z,12.10
2018-11-14T22:14:38.107Z,11.15
2018-11-14T22:17:54.548Z,10.28
2018-11-14T22:20:59.384Z,11.13
2018-11-14T22:24:22.813Z,11.77
2018-11-14T22:27:46.571Z,11.73
2018-11-14T22:30:51.356Z,12.43
2018-11-14T22:33:56.253Z,12.10
2018-11-14T22:37:01.077Z,12.23
2018-11-14T22:40:25.967Z,12.70
2018-11-14T22:43:49.646Z,11.27
2018-11-14T22:47:05.733Z,12.33
2018-11-14T22:50:23.251Z,13.10
2018-11-14T22:53:38.870Z,13.65
2018-11-14T22:56:43.656Z,13.15
2018-11-14T23:00:44.751Z,11.97
2018-11-14T23:03:49.568Z,12.95
2018-11-14T23:07:13.264Z,12.68
2018-11-14T23:10:37.000Z,12.50
2018-11-14T23:13:53.330Z,13.17
2018-11-14T23:17:09.234Z,12.50
2018-11-14T23:20:25.736Z,12.60
2018-11-14T23:23:30.499Z,13.30
2018-11-14T23:26:54.241Z,12.20
2018-11-14T23:30:10.776Z,12.60
2018-11-14T23:33:26.991Z,12.20
2018-11-14T23:36:43.137Z,13.00
2018-11-14T23:39:48.033Z,12.93
2018-11-14T23:42:52.800Z,13.28
2018-11-14T23:46:16.500Z,12.90
2018-11-14T23:49:40.188Z,12.90
2018-11-14T23:52:57.511Z,12.53
2018-11-14T23:56:13.270Z,13.20
2018-11-14T23:59:29.594Z,13.63
